Terminal Aerodrome Forecast
Issued by NWS

Home | Current Version | Previous Version | Text Only | Print | Product List | Glossary Off
Versions: 1 2 3 4 5 6 7 8 9 10 11 12 13 14 15 16 17 18 19 20 21 22

000
FTUS41 KGYX 160523
TAFRKD
TAF
KRKD 160523Z 1606/1706 23003KT P6SM OVC035
     FM161300 13003KT P6SM OVC025
     FM161800 13006KT 4SM -RA BR OVC007
     FM162000 13006KT 2SM -RA BR OVC003
     FM170100 36007KT 4SM -RA BR OVC003
     FM170400 29007KT 6SM -RA OVC015
      AMD LTD TO CLD VIS AND WIND=

USA.gov is the U.S. government's official web portal to all federal, state and local government web resources and services.